Redings Mill, Missouri
Current Conditions -  °F | °C
As of 9:53 AM on Thursday 18 Dec 2014 (Local Time) from KJLN Reporting Station
Haze Haze  
Wind Chill: 37°   Ceiling: 500
Heat Index: 37°   Visibility: 5mi
Dew Point: 36°   Wind: 0mph
Humidity: 96%   Direction: NA
Pressure: 30.21"   Gusts: NA
Location:  37.1074°N, 94.5218°W
Report Text: KJLN 181553Z 00000KT 5SM BR OVC005 03/02 A3021 RMK AO2 SLP235 T00280022
Loading
Personal Weather Stations






























Interactive Weather Map New forecast layout! Learn more

10-Day Weather Forecast

Advertisements
Track Severe Weather on mobile